createdAt,value
2019-02-21T00:00:07.473Z,9.53
2019-02-21T00:02:36.696Z,8.93
2019-02-21T00:05:06.005Z,9.93
2019-02-21T00:07:35.204Z,7.77
2019-02-21T00:10:04.478Z,9.83
2019-02-21T00:12:33.623Z,7.50
2019-02-21T00:15:02.845Z,8.07
2019-02-21T00:17:31.986Z,9.63
2019-02-21T00:20:01.220Z,9.03
2019-02-21T00:22:30.408Z,9.60
2019-02-21T00:24:59.609Z,8.53
2019-02-21T00:27:28.813Z,7.80
2019-02-21T00:29:57.967Z,7.77
2019-02-21T00:32:27.166Z,7.60
2019-02-21T00:34:56.391Z,11.53
2019-02-21T00:37:25.601Z,7.77
2019-02-21T00:39:54.800Z,9.10
2019-02-21T00:42:24.018Z,9.63
2019-02-21T00:44:53.179Z,10.13
2019-02-21T00:47:22.417Z,8.17
2019-02-21T00:49:51.602Z,8.00
2019-02-21T00:52:21.166Z,7.00
2019-02-21T00:54:50.364Z,7.67
2019-02-21T00:57:19.540Z,11.27
2019-02-21T00:59:50.826Z,7.00
2019-02-21T01:02:19.609Z,7.27
2019-02-21T01:04:48.794Z,7.40
2019-02-21T01:07:18.014Z,7.50
2019-02-21T01:09:47.186Z,7.67
2019-02-21T01:12:16.585Z,8.17
2019-02-21T01:14:46.202Z,7.23
2019-02-21T01:17:15.382Z,8.50
2019-02-21T01:19:44.592Z,8.03
2019-02-21T01:22:13.834Z,9.60
2019-02-21T01:24:43.017Z,6.53
2019-02-21T01:27:12.215Z,6.23
2019-02-21T01:29:41.420Z,9.40
2019-02-21T01:32:10.595Z,6.20
2019-02-21T01:34:39.820Z,5.97
2019-02-21T01:37:09.338Z,10.10
2019-02-21T01:39:38.560Z,5.93
2019-02-21T01:42:07.742Z,9.23
2019-02-21T01:44:36.909Z,5.97
2019-02-21T01:47:06.129Z,7.00
2019-02-21T01:49:35.334Z,13.07
2019-02-21T01:52:04.543Z,7.53
2019-02-21T01:54:33.766Z,6.50
2019-02-21T01:57:02.960Z,7.40
2019-02-21T01:59:32.170Z,5.00
2019-02-21T02:02:01.389Z,7.33
2019-02-21T02:04:30.546Z,6.80
2019-02-21T02:07:00.291Z,6.03
2019-02-21T02:09:29.437Z,6.67
2019-02-21T02:11:58.631Z,6.47
2019-02-21T02:14:27.991Z,6.57
2019-02-21T02:16:57.160Z,7.00
2019-02-21T02:19:26.382Z,7.33
2019-02-21T02:21:55.566Z,6.53
2019-02-21T02:24:24.753Z,6.10
2019-02-21T02:26:53.983Z,5.83
2019-02-21T02:29:23.142Z,5.40
2019-02-21T02:31:52.349Z,5.83
2019-02-21T02:34:21.617Z,6.83
2019-02-21T02:36:50.789Z,6.97
2019-02-21T02:39:19.921Z,5.00
2019-02-21T02:41:49.137Z,5.77
2019-02-21T02:44:18.372Z,6.67
2019-02-21T02:46:47.590Z,4.87
2019-02-21T02:49:16.802Z,9.43
2019-02-21T02:51:46.033Z,6.60
2019-02-21T02:54:15.223Z,8.93
2019-02-21T02:56:44.381Z,5.50
2019-02-21T02:59:13.594Z,4.87
2019-02-21T03:01:42.793Z,5.27
2019-02-21T03:04:11.955Z,6.37
2019-02-21T03:06:41.204Z,5.03
2019-02-21T03:09:12.644Z,5.77
2019-02-21T03:11:41.871Z,4.63
2019-02-21T03:14:11.102Z,5.33
2019-02-21T03:16:40.326Z,6.73
2019-02-21T03:19:09.551Z,6.60
2019-02-21T03:21:38.742Z,4.43
2019-02-21T03:24:07.923Z,5.27
2019-02-21T03:26:37.140Z,4.40
2019-02-21T03:29:06.306Z,4.20
2019-02-21T03:31:52.772Z,6.70
2019-02-21T03:34:06.372Z,5.93
2019-02-21T03:36:35.567Z,5.77
2019-02-21T03:39:05.487Z,5.63
2019-02-21T03:41:34.710Z,5.53
2019-02-21T03:44:03.859Z,4.37
2019-02-21T03:46:33.085Z,4.53
2019-02-21T03:49:02.276Z,5.63
2019-02-21T03:51:31.471Z,5.27
2019-02-21T03:54:00.677Z,6.37
2019-02-21T03:56:29.855Z,5.27
2019-02-21T03:58:59.069Z,6.30
2019-02-21T04:01:28.269Z,5.90
2019-02-21T04:03:57.455Z,5.07
2019-02-21T04:06:26.656Z,4.53
2019-02-21T04:08:55.844Z,5.87
2019-02-21T04:11:25.066Z,5.40
2019-02-21T04:13:54.294Z,5.57
2019-02-21T04:16:23.462Z,4.77
2019-02-21T04:18:52.682Z,3.87
2019-02-21T04:21:21.878Z,5.80
2019-02-21T04:23:51.382Z,4.80
2019-02-21T04:26:20.581Z,4.87
2019-02-21T04:28:49.750Z,6.40
2019-02-21T04:31:19.036Z,5.23
2019-02-21T04:33:48.237Z,5.13
2019-02-21T04:36:17.395Z,6.60
2019-02-21T04:38:46.734Z,7.80
2019-02-21T04:41:15.990Z,3.73
2019-02-21T04:43:45.146Z,3.93
2019-02-21T04:46:14.358Z,5.90
2019-02-21T04:48:43.542Z,3.83
2019-02-21T04:51:12.765Z,4.70
2019-02-21T04:53:41.998Z,4.37
2019-02-21T04:56:11.206Z,4.60
2019-02-21T04:59:00.155Z,4.77
2019-02-21T05:01:29.372Z,5.03
2019-02-21T05:03:58.530Z,4.00
2019-02-21T05:06:27.737Z,6.10
2019-02-21T05:08:57.144Z,3.57
2019-02-21T05:11:26.951Z,3.70
2019-02-21T05:13:56.184Z,4.30
2019-02-21T05:16:25.413Z,6.40
2019-02-21T05:18:54.990Z,3.90
2019-02-21T05:21:24.259Z,4.33
2019-02-21T05:23:53.472Z,5.03
2019-02-21T05:26:28.597Z,4.17
2019-02-21T05:28:58.183Z,5.63
2019-02-21T05:31:45.558Z,3.67
2019-02-21T05:34:37.173Z,3.80
2019-02-21T05:37:17.038Z,3.60
2019-02-21T05:39:54.463Z,2.83
2019-02-21T05:42:39.879Z,3.80
2019-02-21T05:45:23.864Z,3.63
2019-02-21T05:48:12.037Z,3.90
2019-02-21T05:50:49.366Z,4.93
2019-02-21T05:53:25.382Z,3.03
2019-02-21T05:56:12.192Z,4.10
2019-02-21T05:58:59.208Z,4.20
2019-02-21T06:01:40.517Z,2.93
2019-02-21T06:04:31.778Z,3.97
2019-02-21T06:07:28.822Z,3.70
2019-02-21T06:10:23.417Z,3.73
2019-02-21T06:13:11.546Z,4.30
2019-02-21T06:16:04.661Z,3.83
2019-02-21T06:18:56.935Z,5.30
2019-02-21T06:21:51.079Z,8.10
2019-02-21T06:24:29.285Z,5.57
2019-02-21T06:27:06.206Z,9.67
2019-02-21T06:29:41.500Z,12.77
2019-02-21T06:32:14.183Z,15.07
2019-02-21T06:34:41.568Z,9.37
2019-02-21T06:37:12.725Z,16.73
2019-02-21T06:39:41.873Z,18.13
2019-02-21T06:42:11.351Z,18.93
2019-02-21T06:44:40.543Z,20.27
2019-02-21T06:47:09.761Z,25.37
2019-02-21T06:49:38.941Z,20.93
2019-02-21T06:52:08.140Z,19.93
2019-02-21T06:54:37.350Z,18.73
2019-02-21T06:57:06.566Z,16.57
2019-02-21T06:59:43.237Z,11.60
2019-02-21T07:02:06.626Z,15.47
2019-02-21T07:04:35.867Z,13.00
2019-02-21T07:07:05.083Z,10.97
2019-02-21T07:09:34.293Z,11.13
2019-02-21T07:12:03.478Z,9.10
2019-02-21T07:14:34.412Z,11.53
2019-02-21T07:17:03.856Z,12.50
2019-02-21T07:19:32.994Z,10.47
2019-02-21T07:22:02.225Z,10.50
2019-02-21T07:24:31.507Z,10.37
2019-02-21T07:27:00.687Z,12.00
2019-02-21T07:29:29.933Z,10.13
2019-02-21T07:31:59.115Z,10.13
2019-02-21T07:34:30.308Z,10.47
2019-02-21T07:36:59.173Z,12.13
2019-02-21T07:39:35.520Z,12.53
2019-02-21T07:41:59.231Z,9.43
2019-02-21T07:44:28.399Z,12.23
2019-02-21T07:46:57.590Z,13.63
2019-02-21T07:49:26.834Z,13.40
2019-02-21T07:51:56.006Z,11.53
2019-02-21T07:54:25.246Z,10.63
2019-02-21T07:56:54.442Z,12.90
2019-02-21T07:59:23.883Z,12.13
2019-02-21T08:01:53.114Z,18.10
2019-02-21T08:04:22.306Z,12.50
2019-02-21T08:06:51.479Z,12.67
2019-02-21T08:09:20.721Z,12.43
2019-02-21T08:11:50.174Z,14.53
2019-02-21T08:14:19.421Z,14.40
2019-02-21T08:16:48.605Z,16.40
2019-02-21T08:19:17.742Z,18.20
2019-02-21T08:21:47.073Z,15.00
2019-02-21T08:24:16.574Z,13.43
2019-02-21T08:26:45.759Z,12.77
2019-02-21T08:29:14.998Z,13.03
2019-02-21T08:31:44.170Z,13.43
2019-02-21T08:34:38.379Z,10.17
2019-02-21T08:37:08.797Z,11.90
2019-02-21T08:39:38.146Z,9.53
2019-02-21T08:42:07.412Z,12.37
2019-02-21T08:44:36.586Z,10.17
2019-02-21T08:47:05.801Z,9.73
2019-02-21T08:49:35.004Z,9.40
2019-02-21T08:52:04.165Z,10.67
2019-02-21T08:54:33.385Z,10.87
2019-02-21T08:57:02.610Z,11.10
2019-02-21T08:59:31.819Z,8.23
2019-02-21T09:02:01.043Z,9.07
2019-02-21T09:04:30.490Z,10.60
2019-02-21T09:06:59.679Z,9.17
2019-02-21T09:09:28.891Z,9.30
2019-02-21T09:11:58.070Z,9.67
2019-02-21T09:14:27.882Z,9.90
2019-02-21T09:16:57.122Z,7.53
2019-02-21T09:19:26.294Z,11.67
2019-02-21T09:21:55.525Z,9.53
2019-02-21T09:24:37.458Z,9.50
2019-02-21T09:26:57.084Z,11.43
2019-02-21T09:29:26.393Z,8.57
2019-02-21T09:31:55.590Z,10.67
2019-02-21T09:34:24.798Z,9.70
2019-02-21T09:36:54.001Z,9.70
2019-02-21T09:39:23.194Z,8.50
2019-02-21T09:41:52.352Z,12.40
2019-02-21T09:44:21.527Z,14.97
2019-02-21T09:46:50.727Z,13.17
2019-02-21T09:49:19.980Z,10.07
2019-02-21T09:51:49.247Z,9.50
2019-02-21T09:54:19.187Z,11.43
2019-02-21T09:56:52.695Z,12.17
2019-02-21T09:59:19.509Z,10.17
2019-02-21T10:01:48.718Z,10.00
2019-02-21T10:04:17.990Z,9.80
2019-02-21T10:06:47.191Z,8.00
2019-02-21T10:09:16.423Z,8.80
2019-02-21T10:11:45.583Z,9.33
2019-02-21T10:14:14.806Z,7.83
2019-02-21T10:16:43.996Z,7.83
2019-02-21T10:19:13.234Z,8.07
2019-02-21T10:21:42.405Z,9.23
2019-02-21T10:24:11.553Z,6.93
2019-02-21T10:26:40.749Z,7.43
2019-02-21T10:29:09.944Z,8.90
2019-02-21T10:31:39.135Z,7.83
2019-02-21T10:34:09.588Z,6.77
2019-02-21T10:36:39.094Z,8.07
2019-02-21T10:39:08.286Z,6.17
2019-02-21T10:41:37.819Z,10.60
2019-02-21T10:44:07.382Z,16.97
2019-02-21T10:46:36.566Z,9.67
2019-02-21T10:49:05.754Z,7.40
2019-02-21T10:51:34.926Z,7.30
2019-02-21T10:54:04.134Z,7.30
2019-02-21T10:56:33.585Z,7.10
2019-02-21T10:59:02.797Z,8.73
2019-02-21T11:01:32.878Z,12.37
2019-02-21T11:04:02.121Z,7.67
2019-02-21T11:06:31.353Z,7.60
2019-02-21T11:09:00.519Z,8.63
2019-02-21T11:11:29.721Z,6.13
2019-02-21T11:13:58.906Z,6.20
2019-02-21T11:16:28.091Z,6.83
2019-02-21T11:18:57.337Z,10.57
2019-02-21T11:21:26.514Z,7.87
2019-02-21T11:24:14.911Z,6.10
2019-02-21T11:26:44.118Z,6.60
2019-02-21T11:29:13.294Z,9.30
2019-02-21T11:31:42.508Z,5.27
2019-02-21T11:34:11.756Z,7.40
2019-02-21T11:36:40.874Z,5.80
2019-02-21T11:39:10.100Z,7.07
2019-02-21T11:41:39.278Z,5.43
2019-02-21T11:44:08.494Z,6.20
2019-02-21T11:46:37.719Z,7.70
2019-02-21T11:49:06.889Z,4.70
2019-02-21T11:51:36.087Z,4.97
2019-02-21T11:54:05.293Z,4.43
2019-02-21T11:56:34.507Z,5.43
2019-02-21T11:59:03.720Z,4.00
2019-02-21T12:01:32.918Z,5.00
2019-02-21T12:04:02.490Z,4.73
2019-02-21T12:06:31.676Z,7.23
2019-02-21T12:09:00.858Z,6.30
2019-02-21T12:11:30.065Z,5.03
2019-02-21T12:13:59.229Z,7.70
2019-02-21T12:16:28.436Z,6.20
2019-02-21T12:18:57.643Z,7.37
2019-02-21T12:21:26.873Z,8.13
2019-02-21T12:23:56.079Z,6.93
2019-02-21T12:26:25.297Z,6.83
2019-02-21T12:28:54.495Z,5.80
2019-02-21T12:31:23.673Z,5.20
2019-02-21T12:33:57.831Z,6.57
2019-02-21T12:36:27.023Z,4.20
2019-02-21T12:38:56.245Z,4.93
2019-02-21T12:41:25.413Z,5.40
2019-02-21T12:43:54.651Z,5.17
2019-02-21T12:46:23.835Z,4.40
2019-02-21T12:48:53.039Z,5.70
2019-02-21T12:51:22.266Z,3.90
2019-02-21T12:53:51.426Z,3.77
2019-02-21T12:56:20.646Z,4.53
2019-02-21T12:58:49.894Z,4.40
2019-02-21T13:01:19.091Z,4.23
2019-02-21T13:03:48.287Z,4.07
2019-02-21T13:06:17.527Z,4.27
2019-02-21T13:08:46.699Z,4.87
2019-02-21T13:11:15.914Z,5.17
2019-02-21T13:13:45.103Z,4.73
2019-02-21T13:16:14.275Z,4.97
2019-02-21T13:18:43.497Z,4.00
2019-02-21T13:21:13.034Z,4.47
2019-02-21T13:23:42.996Z,6.10
2019-02-21T13:26:12.365Z,4.90
2019-02-21T13:28:41.554Z,3.43
2019-02-21T13:31:10.873Z,3.33
2019-02-21T13:33:40.042Z,3.97
2019-02-21T13:36:09.630Z,5.03
2019-02-21T13:38:38.857Z,3.83
2019-02-21T13:41:08.034Z,4.53
2019-02-21T13:43:37.217Z,4.07
2019-02-21T13:46:06.438Z,4.07
2019-02-21T13:48:35.767Z,4.70
2019-02-21T13:51:04.922Z,3.77
2019-02-21T13:53:34.235Z,4.23
2019-02-21T13:56:03.337Z,4.87
2019-02-21T13:58:32.528Z,5.07
2019-02-21T14:01:01.714Z,4.03
2019-02-21T14:03:30.913Z,4.57
2019-02-21T14:06:03.525Z,5.43
2019-02-21T14:08:30.940Z,4.07
2019-02-21T14:11:00.346Z,3.40
2019-02-21T14:13:29.574Z,3.40
2019-02-21T14:15:58.802Z,4.40
2019-02-21T14:18:28.334Z,4.57
2019-02-21T14:20:57.530Z,4.63
2019-02-21T14:23:28.080Z,3.13
2019-02-21T14:25:57.681Z,4.30
2019-02-21T14:28:27.618Z,4.03
2019-02-21T14:30:56.829Z,4.00
2019-02-21T14:33:26.082Z,3.33
2019-02-21T14:35:55.274Z,3.90
2019-02-21T14:38:27.969Z,4.03
2019-02-21T14:40:55.622Z,5.60
2019-02-21T14:43:24.826Z,4.93
2019-02-21T14:45:54.014Z,3.83
2019-02-21T14:48:23.473Z,3.10
2019-02-21T14:50:52.675Z,3.20
2019-02-21T14:53:22.218Z,3.40
2019-02-21T14:55:51.385Z,3.83
2019-02-21T14:58:20.569Z,4.13
2019-02-21T15:00:49.770Z,3.43
2019-02-21T15:03:21.943Z,3.70
2019-02-21T15:05:49.853Z,3.47
2019-02-21T15:08:22.096Z,3.70
2019-02-21T15:10:52.674Z,3.60
2019-02-21T15:13:22.092Z,4.13
2019-02-21T15:15:51.287Z,4.13
2019-02-21T15:18:20.509Z,2.90
2019-02-21T15:20:49.695Z,3.50
2019-02-21T15:23:18.890Z,4.13
2019-02-21T15:25:48.082Z,5.83
2019-02-21T15:28:17.278Z,4.63
2019-02-21T15:30:46.523Z,3.20
2019-02-21T15:33:15.724Z,3.40
2019-02-21T15:35:44.954Z,4.07
2019-02-21T15:38:20.017Z,3.60
2019-02-21T15:40:44.990Z,3.47
2019-02-21T15:43:14.198Z,3.07
2019-02-21T15:45:43.713Z,3.63
2019-02-21T15:48:12.909Z,3.43
2019-02-21T15:50:42.093Z,3.27
2019-02-21T15:53:11.306Z,3.53
2019-02-21T15:55:40.487Z,2.77
2019-02-21T15:58:09.706Z,3.00
2019-02-21T16:00:38.916Z,3.03
2019-02-21T16:03:08.538Z,2.70
2019-02-21T16:05:37.753Z,6.70
2019-02-21T16:08:06.927Z,8.03
2019-02-21T16:10:36.433Z,4.63
2019-02-21T16:13:05.858Z,6.07
2019-02-21T16:15:35.534Z,8.13
2019-02-21T16:18:05.050Z,5.73
2019-02-21T16:20:34.715Z,5.47
2019-02-21T16:23:04.266Z,6.30
2019-02-21T16:25:33.463Z,6.70
2019-02-21T16:28:02.977Z,6.03
2019-02-21T16:30:32.129Z,6.80
2019-02-21T16:33:01.354Z,6.60
2019-02-21T16:35:30.572Z,4.20
2019-02-21T16:37:59.772Z,7.43
2019-02-21T16:40:28.948Z,4.03
2019-02-21T16:43:00.930Z,4.80
2019-02-21T16:45:42.452Z,4.27
2019-02-21T16:48:01.014Z,4.80
2019-02-21T16:50:30.363Z,5.07
2019-02-21T16:52:59.905Z,5.40
2019-02-21T16:55:29.117Z,8.10
2019-02-21T16:57:58.308Z,6.10
2019-02-21T17:00:42.198Z,4.97
2019-02-21T17:02:58.435Z,4.13
2019-02-21T17:05:27.761Z,3.83
2019-02-21T17:07:56.939Z,4.03
2019-02-21T17:10:26.158Z,6.60
2019-02-21T17:12:55.342Z,4.53
2019-02-21T17:15:24.506Z,4.77
2019-02-21T17:17:53.732Z,4.10
2019-02-21T17:20:22.954Z,3.80
2019-02-21T17:22:52.170Z,4.33
2019-02-21T17:25:21.378Z,6.63
2019-02-21T17:27:50.681Z,4.27
2019-02-21T17:30:19.898Z,4.10
2019-02-21T17:32:49.125Z,4.70
2019-02-21T17:35:18.352Z,3.57
2019-02-21T17:37:47.594Z,3.47
2019-02-21T17:40:18.403Z,3.17
2019-02-21T17:42:47.966Z,4.80
2019-02-21T17:45:17.188Z,3.93
2019-02-21T17:47:46.794Z,3.97
2019-02-21T17:50:16.157Z,6.27
2019-02-21T17:52:45.378Z,3.93
2019-02-21T17:55:14.605Z,3.97
2019-02-21T17:57:43.794Z,3.90
2019-02-21T18:00:20.573Z,3.93
2019-02-21T18:02:49.783Z,3.60
2019-02-21T18:05:19.314Z,3.10
2019-02-21T18:07:48.509Z,3.63
2019-02-21T18:10:17.718Z,3.80
2019-02-21T18:12:46.913Z,3.93
2019-02-21T18:15:16.558Z,4.60
2019-02-21T18:17:45.747Z,3.23
2019-02-21T18:20:14.947Z,2.90
2019-02-21T18:22:44.146Z,4.50
2019-02-21T18:25:16.630Z,3.47
2019-02-21T18:27:45.860Z,3.47
2019-02-21T18:30:15.414Z,3.27
2019-02-21T18:32:44.629Z,4.23
2019-02-21T18:35:13.891Z,4.17
2019-02-21T18:37:47.562Z,5.27
2019-02-21T18:40:18.374Z,4.45
2019-02-21T18:42:46.044Z,6.13
2019-02-21T18:45:17.386Z,6.10
2019-02-21T18:47:47.185Z,6.33
2019-02-21T18:50:16.424Z,8.10
2019-02-21T18:52:46.002Z,6.60
2019-02-21T18:55:15.221Z,5.23
2019-02-21T18:57:44.414Z,5.93
2019-02-21T19:00:15.033Z,5.93
2019-02-21T19:02:44.250Z,4.90
2019-02-21T19:05:13.496Z,7.97
2019-02-21T19:07:42.669Z,6.43
2019-02-21T19:10:13.539Z,10.57
2019-02-21T19:12:43.794Z,11.87
2019-02-21T19:15:16.085Z,6.50
2019-02-21T19:17:45.450Z,6.27
2019-02-21T19:20:14.788Z,5.63
2019-02-21T19:22:44.085Z,6.47
2019-02-21T19:25:13.850Z,5.87
2019-02-21T19:27:43.502Z,5.80
2019-02-21T19:30:22.590Z,7.63
2019-02-21T19:32:53.601Z,7.83
2019-02-21T19:35:23.285Z,7.33
2019-02-21T19:37:52.565Z,5.67
2019-02-21T19:40:24.416Z,6.90
2019-02-21T19:42:55.814Z,6.60
2019-02-21T19:45:26.427Z,6.77
2019-02-21T19:47:55.714Z,6.43
2019-02-21T19:50:26.044Z,6.87
2019-02-21T19:52:56.516Z,6.03
2019-02-21T19:55:29.707Z,9.10
2019-02-21T19:57:58.727Z,5.60
2019-02-21T20:00:29.744Z,7.40
2019-02-21T20:02:59.039Z,5.97
2019-02-21T20:05:28.642Z,6.50
2019-02-21T20:08:08.198Z,8.37
2019-02-21T20:10:28.993Z,6.43
2019-02-21T20:13:01.173Z,5.57
2019-02-21T20:15:34.288Z,9.27
2019-02-21T20:18:03.481Z,6.83
2019-02-21T20:20:32.804Z,5.70
2019-02-21T20:23:02.054Z,7.17
2019-02-21T20:25:31.421Z,5.67
2019-02-21T20:28:02.297Z,6.37
2019-02-21T20:30:31.680Z,6.77
2019-02-21T20:33:00.947Z,6.83
2019-02-21T20:35:30.170Z,8.00
2019-02-21T20:38:00.288Z,6.13
2019-02-21T20:40:29.563Z,8.60
2019-02-21T20:42:58.783Z,8.17
2019-02-21T20:45:28.076Z,8.50
2019-02-21T20:47:57.306Z,6.43
2019-02-21T20:50:27.262Z,6.53
2019-02-21T20:52:57.199Z,6.63
2019-02-21T20:55:26.740Z,7.50
2019-02-21T20:57:56.723Z,7.37
2019-02-21T21:00:26.272Z,7.07
2019-02-21T21:02:55.482Z,8.27
2019-02-21T21:05:24.716Z,7.17
2019-02-21T21:07:54.390Z,9.67
2019-02-21T21:10:23.591Z,9.17
2019-02-21T21:12:52.813Z,7.13
2019-02-21T21:15:21.997Z,9.80
2019-02-21T21:17:51.315Z,8.70
2019-02-21T21:20:20.510Z,9.27
2019-02-21T21:22:49.730Z,8.17
2019-02-21T21:25:18.970Z,8.03
2019-02-21T21:27:48.171Z,10.73
2019-02-21T21:30:29.401Z,9.23
2019-02-21T21:32:58.613Z,11.60
2019-02-21T21:35:27.842Z,11.50
2019-02-21T21:37:57.063Z,10.93
2019-02-21T21:40:26.642Z,8.90
2019-02-21T21:42:55.847Z,9.60
2019-02-21T21:45:30.081Z,9.77
2019-02-21T21:47:59.309Z,9.00
2019-02-21T21:50:28.536Z,9.87
2019-02-21T21:52:59.753Z,7.67
2019-02-21T21:55:28.609Z,10.70
2019-02-21T21:57:57.762Z,9.50
2019-02-21T22:00:27.781Z,9.17
2019-02-21T22:02:56.965Z,8.43
2019-02-21T22:05:26.135Z,9.50
2019-02-21T22:07:55.329Z,9.23
2019-02-21T22:10:24.539Z,9.63
2019-02-21T22:12:54.101Z,8.63
2019-02-21T22:15:23.324Z,9.40
2019-02-21T22:17:52.623Z,10.70
2019-02-21T22:20:21.858Z,9.60
2019-02-21T22:22:51.062Z,10.07
2019-02-21T22:25:20.236Z,12.10
2019-02-21T22:27:49.493Z,11.83
2019-02-21T22:30:18.699Z,12.80
2019-02-21T22:32:47.907Z,13.17
2019-02-21T22:35:17.143Z,12.70
2019-02-21T22:37:46.717Z,12.53
2019-02-21T22:40:16.001Z,14.50
2019-02-21T22:42:45.210Z,11.03
2019-02-21T22:45:14.385Z,11.53
2019-02-21T22:47:43.921Z,11.23
2019-02-21T22:50:14.428Z,11.70
2019-02-21T22:52:43.644Z,13.17
2019-02-21T22:55:12.842Z,11.87
2019-02-21T22:57:42.062Z,11.23
2019-02-21T23:01:04.079Z,10.37
2019-02-21T23:03:52.730Z,12.10
2019-02-21T23:06:49.446Z,10.20
2019-02-21T23:09:27.635Z,9.43
2019-02-21T23:11:52.081Z,10.27
2019-02-21T23:14:21.290Z,8.00
2019-02-21T23:16:50.510Z,8.80
2019-02-21T23:19:19.717Z,14.10
2019-02-21T23:21:49.040Z,13.93
2019-02-21T23:24:18.176Z,12.50
2019-02-21T23:26:47.399Z,9.83
2019-02-21T23:29:23.403Z,11.10
2019-02-21T23:31:52.629Z,9.83
2019-02-21T23:34:37.514Z,9.80
2019-02-21T23:37:06.722Z,8.50
2019-02-21T23:39:38.631Z,10.77
2019-02-21T23:42:06.779Z,10.03
2019-02-21T23:44:35.996Z,8.37
2019-02-21T23:47:05.193Z,11.43
2019-02-21T23:49:34.404Z,8.13
2019-02-21T23:52:03.600Z,7.43
2019-02-21T23:54:32.799Z,9.00
2019-02-21T23:57:01.982Z,8.67
2019-02-21T23:59:31.206Z,9.70
